createdAt,value
2018-09-28T00:02:53.926Z,69.80
2018-09-28T00:05:57.076Z,70.60
2018-09-28T00:09:00.215Z,71.40
2018-09-28T00:12:03.331Z,71.80
2018-09-28T00:15:06.522Z,71.40
2018-09-28T00:18:09.637Z,71.60
2018-09-28T00:21:12.845Z,71.70
2018-09-28T00:24:15.968Z,71.80
2018-09-28T00:27:19.242Z,71.40
2018-09-28T00:30:22.379Z,71.60
2018-09-28T00:33:25.507Z,71.80
2018-09-28T00:36:28.643Z,71.70
2018-09-28T00:39:31.783Z,72.70
2018-09-28T00:42:34.902Z,72.10
2018-09-28T00:45:38.034Z,72.50
2018-09-28T00:48:41.161Z,72.70
2018-09-28T00:51:44.332Z,73.00
2018-09-28T00:54:47.463Z,73.70
2018-09-28T00:57:50.607Z,74.40
2018-09-28T01:00:53.702Z,74.90
2018-09-28T01:03:56.814Z,74.80
2018-09-28T01:06:59.915Z,75.50
2018-09-28T01:10:03.054Z,76.40
2018-09-28T01:13:06.211Z,76.80
2018-09-28T01:16:09.343Z,77.40
2018-09-28T01:19:12.491Z,77.50
2018-09-28T01:22:15.630Z,78.30
2018-09-28T01:25:18.739Z,78.50
2018-09-28T01:28:21.862Z,78.60
2018-09-28T01:31:24.970Z,78.30
2018-09-28T01:34:28.105Z,78.50
2018-09-28T01:37:31.238Z,79.00
2018-09-28T01:40:34.381Z,79.20
2018-09-28T01:43:37.522Z,78.90
2018-09-28T01:46:40.638Z,78.70
2018-09-28T01:49:43.757Z,79.00
2018-09-28T01:52:46.877Z,80.00
2018-09-28T01:55:50.002Z,80.80
2018-09-28T01:58:53.097Z,80.80
2018-09-28T02:01:56.277Z,80.60
2018-09-28T02:04:59.385Z,80.90
2018-09-28T02:08:02.546Z,81.10
2018-09-28T02:11:05.773Z,81.60
2018-09-28T02:14:08.891Z,81.70
2018-09-28T02:17:12.031Z,81.80
2018-09-28T02:20:15.125Z,81.80
2018-09-28T02:23:18.249Z,81.60
2018-09-28T02:26:21.357Z,81.70
2018-09-28T02:29:24.521Z,81.70
2018-09-28T02:32:27.666Z,81.80
2018-09-28T02:35:30.792Z,82.10
2018-09-28T02:38:33.902Z,81.90
2018-09-28T02:41:37.036Z,82.20
2018-09-28T02:44:40.267Z,83.10
2018-09-28T02:47:43.390Z,83.30
2018-09-28T02:50:46.514Z,83.70
2018-09-28T02:53:49.644Z,85.50
2018-09-28T02:56:52.825Z,86.30
2018-09-28T02:59:55.866Z,87.10
2018-09-28T03:02:58.999Z,87.60
2018-09-28T03:06:02.149Z,88.10
2018-09-28T03:09:07.224Z,88.60
2018-09-28T03:12:10.320Z,89.00
2018-09-28T03:15:13.453Z,89.30
2018-09-28T03:18:16.574Z,90.00
2018-09-28T03:21:19.714Z,90.20
2018-09-28T03:24:22.823Z,90.50
2018-09-28T03:27:25.965Z,90.60
2018-09-28T03:30:29.095Z,90.80
2018-09-28T03:33:32.286Z,91.10
2018-09-28T03:36:35.415Z,91.30
2018-09-28T03:39:38.622Z,91.40
2018-09-28T03:42:41.770Z,91.60
2018-09-28T03:45:44.933Z,92.00
2018-09-28T03:48:48.051Z,92.30
2018-09-28T03:51:51.167Z,92.50
2018-09-28T03:54:54.298Z,92.80
2018-09-28T03:57:57.447Z,92.90
2018-09-28T04:01:00.603Z,93.20
2018-09-28T04:04:03.717Z,93.10
2018-09-28T04:07:06.930Z,93.60
2018-09-28T04:10:10.034Z,93.40
2018-09-28T04:13:13.214Z,93.50
2018-09-28T04:16:16.306Z,93.60
2018-09-28T04:19:19.423Z,93.60
2018-09-28T04:22:22.554Z,94.00
2018-09-28T04:25:25.698Z,93.70
2018-09-28T04:28:28.857Z,94.00
2018-09-28T04:31:31.962Z,94.90
2018-09-28T04:34:35.074Z,95.20
2018-09-28T04:37:38.191Z,95.40
2018-09-28T04:40:41.317Z,95.80
2018-09-28T04:43:44.431Z,96.10
2018-09-28T04:46:47.611Z,96.20
2018-09-28T04:49:50.697Z,96.10
2018-09-28T04:52:53.888Z,95.90
2018-09-28T04:55:57.001Z,95.80
2018-09-28T04:59:00.133Z,96.20
2018-09-28T05:02:03.230Z,96.40
2018-09-28T05:05:06.511Z,96.80
2018-09-28T05:11:19.119Z,97.80
2018-09-28T05:14:22.254Z,98.00
2018-09-28T05:17:25.354Z,98.00
2018-09-28T05:20:28.549Z,97.80
2018-09-28T05:23:31.649Z,97.80
2018-09-28T05:26:34.766Z,97.90
2018-09-28T05:29:37.894Z,97.90
2018-09-28T05:32:41.267Z,97.80
2018-09-28T05:35:44.125Z,97.20
2018-09-28T05:38:47.247Z,97.00
2018-09-28T05:41:50.402Z,96.80
2018-09-28T05:44:53.518Z,96.60
2018-09-28T05:47:56.693Z,96.50
2018-09-28T05:50:59.813Z,96.10
2018-09-28T05:54:02.966Z,96.10
2018-09-28T05:57:06.193Z,96.30
2018-09-28T06:01:17.505Z,96.20
2018-09-28T06:05:23.675Z,96.80
2018-09-28T06:08:26.775Z,96.40
2018-09-28T06:11:29.935Z,95.80
2018-09-28T06:14:33.033Z,95.70
2018-09-28T06:17:36.166Z,95.70
2018-09-28T06:20:39.281Z,95.70
2018-09-28T06:23:42.414Z,95.80
2018-09-28T06:26:45.557Z,95.90
2018-09-28T06:29:48.731Z,95.80
2018-09-28T06:32:51.877Z,95.70
2018-09-28T06:35:55.047Z,95.80
2018-09-28T06:38:58.142Z,95.90
2018-09-28T06:42:01.371Z,95.90
2018-09-28T06:45:04.433Z,95.90
2018-09-28T06:48:07.593Z,96.10
2018-09-28T06:51:10.722Z,96.20
2018-09-28T06:54:13.870Z,96.20
2018-09-28T06:57:16.922Z,96.90
2018-09-28T07:00:20.124Z,97.90
2018-09-28T07:03:23.174Z,98.50
2018-09-28T07:06:26.341Z,98.30
2018-09-28T07:09:30.363Z,98.90
2018-09-28T07:12:33.545Z,99.90
2018-09-28T07:15:36.665Z,99.90
2018-09-28T07:18:39.799Z,99.90
2018-09-28T07:21:44.018Z,99.90
2018-09-28T07:24:47.247Z,99.90
2018-09-28T07:27:50.281Z,99.90
2018-09-28T07:30:53.423Z,99.90
2018-09-28T07:33:56.541Z,99.90
2018-09-28T07:36:59.743Z,99.90
2018-09-28T07:40:02.835Z,99.90
2018-09-28T07:43:06.030Z,99.90
2018-09-28T07:46:09.194Z,99.90
2018-09-28T07:49:12.364Z,99.90
2018-09-28T07:52:15.455Z,99.90
2018-09-28T07:55:18.606Z,99.90
2018-09-28T07:58:21.721Z,99.90
2018-09-28T08:01:24.905Z,99.90
2018-09-28T08:04:28.057Z,99.90
2018-09-28T08:07:31.233Z,99.90
2018-09-28T08:10:34.401Z,99.90
2018-09-28T08:13:37.510Z,99.90
2018-09-28T08:16:40.673Z,99.90
2018-09-28T08:19:43.836Z,99.90
2018-09-28T08:22:46.943Z,99.90
2018-09-28T08:25:50.110Z,99.90
2018-09-28T08:28:53.233Z,99.90
2018-09-28T08:31:56.374Z,99.90
2018-09-28T08:34:59.522Z,99.90
2018-09-28T08:38:02.633Z,99.90
2018-09-28T08:41:05.933Z,99.90
2018-09-28T08:44:09.046Z,99.90
2018-09-28T08:47:12.426Z,99.90
2018-09-28T08:50:15.521Z,99.90
2018-09-28T08:53:18.663Z,99.90
2018-09-28T08:56:21.797Z,99.90
2018-09-28T08:59:25.118Z,99.90
2018-09-28T09:02:28.292Z,99.90
2018-09-28T09:05:31.429Z,99.90
2018-09-28T09:08:34.599Z,99.90
2018-09-28T09:11:37.738Z,99.90
2018-09-28T09:14:40.890Z,99.90
2018-09-28T09:17:43.992Z,99.90
2018-09-28T09:20:47.130Z,99.90
2018-09-28T09:23:50.275Z,99.90
2018-09-28T09:26:53.378Z,99.90
2018-09-28T09:29:56.484Z,99.90
2018-09-28T09:32:59.609Z,99.90
2018-09-28T09:36:02.765Z,99.90
2018-09-28T09:39:08.002Z,99.90
2018-09-28T09:42:11.379Z,99.90
2018-09-28T09:45:14.505Z,99.90
2018-09-28T09:48:17.668Z,99.90
2018-09-28T09:51:20.831Z,99.90
2018-09-28T09:54:23.957Z,99.90
2018-09-28T09:57:27.122Z,99.90
2018-09-28T10:00:35.822Z,99.90
2018-09-28T10:03:44.519Z,99.90
2018-09-28T10:06:47.621Z,99.90
2018-09-28T10:09:50.764Z,99.90
2018-09-28T10:12:53.908Z,99.90
2018-09-28T10:15:57.053Z,99.80
2018-09-28T10:19:00.170Z,98.60
2018-09-28T10:22:05.763Z,98.00
2018-09-28T10:25:08.939Z,97.80
2018-09-28T10:28:12.092Z,95.70
2018-09-28T10:31:16.218Z,94.50
2018-09-28T10:34:19.374Z,93.10
2018-09-28T10:40:43.161Z,92.20
2018-09-28T10:43:46.154Z,90.90
2018-09-28T10:46:49.345Z,90.90
2018-09-28T10:49:52.839Z,90.30
2018-09-28T10:52:56.712Z,90.70
2018-09-28T10:55:59.787Z,89.50
2018-09-28T10:59:02.915Z,90.00
2018-09-28T11:02:06.187Z,90.30
2018-09-28T11:05:09.331Z,90.40
2018-09-28T11:08:12.973Z,90.70
2018-09-28T11:11:16.823Z,90.10
2018-09-28T11:14:19.989Z,90.40
2018-09-28T11:17:23.117Z,88.00
2018-09-28T11:20:26.210Z,88.30
2018-09-28T11:23:29.506Z,86.90
2018-09-28T11:26:32.621Z,88.30
2018-09-28T11:29:35.794Z,87.70
2018-09-28T11:32:38.885Z,86.10
2018-09-28T11:35:42.009Z,85.40
2018-09-28T11:38:45.147Z,84.80
2018-09-28T11:41:48.506Z,83.30
2018-09-28T11:44:51.646Z,84.10
2018-09-28T11:47:54.802Z,83.60
2018-09-28T11:50:57.913Z,83.40
2018-09-28T11:54:01.078Z,83.50
2018-09-28T11:57:04.205Z,82.70
2018-09-28T12:00:07.405Z,83.10
2018-09-28T12:03:10.509Z,82.70
2018-09-28T12:06:13.686Z,81.40
2018-09-28T12:09:16.785Z,82.50
2018-09-28T12:12:19.964Z,81.60
2018-09-28T12:15:23.093Z,82.20
2018-09-28T12:18:26.286Z,81.80
2018-09-28T12:21:29.366Z,82.00
2018-09-28T12:24:32.518Z,80.90
2018-09-28T12:27:35.688Z,79.80
2018-09-28T12:30:38.821Z,79.70
2018-09-28T12:33:41.923Z,78.60
2018-09-28T12:36:45.038Z,79.90
2018-09-28T12:39:48.285Z,80.10
2018-09-28T12:42:51.327Z,80.90
2018-09-28T12:45:54.439Z,81.90
2018-09-28T12:48:57.590Z,82.60
2018-09-28T12:52:00.737Z,84.50
2018-09-28T12:55:03.842Z,85.50
2018-09-28T12:58:07.098Z,86.60
2018-09-28T13:01:10.378Z,85.20
2018-09-28T13:04:18.210Z,85.80
2018-09-28T13:07:21.338Z,85.20
2018-09-28T13:10:24.426Z,85.60
2018-09-28T13:13:27.558Z,85.50
2018-09-28T13:16:30.661Z,84.00
2018-09-28T13:19:33.802Z,84.00
2018-09-28T13:22:36.961Z,84.70
2018-09-28T13:25:40.133Z,84.60
2018-09-28T13:28:43.341Z,83.70
2018-09-28T13:31:46.518Z,82.10
2018-09-28T13:34:49.609Z,81.80
2018-09-28T13:37:52.735Z,82.10
2018-09-28T13:40:55.846Z,82.10
2018-09-28T13:43:58.989Z,80.30
2018-09-28T13:47:02.106Z,79.60
2018-09-28T13:50:05.476Z,79.60
2018-09-28T13:53:08.578Z,80.10
2018-09-28T13:56:11.755Z,80.20
2018-09-28T13:59:14.861Z,78.70
2018-09-28T14:02:18.096Z,78.90
2018-09-28T14:05:21.283Z,78.90
2018-09-28T14:08:24.447Z,79.60
2018-09-28T14:11:27.558Z,77.50
2018-09-28T14:14:30.703Z,77.00
2018-09-28T14:17:33.835Z,77.30
2018-09-28T14:20:36.998Z,77.10
2018-09-28T14:23:40.115Z,78.10
2018-09-28T14:26:43.307Z,79.40
2018-09-28T14:29:46.385Z,79.60
2018-09-28T14:32:49.568Z,79.80
2018-09-28T14:35:52.702Z,80.40
2018-09-28T14:38:55.806Z,80.50
2018-09-28T14:41:59.186Z,81.00
2018-09-28T14:45:02.242Z,80.30
2018-09-28T14:48:05.407Z,79.30
2018-09-28T14:51:08.506Z,75.50
2018-09-28T14:54:11.710Z,72.50
2018-09-28T14:57:14.865Z,73.70
2018-09-28T15:00:19.046Z,72.80
2018-09-28T15:03:22.161Z,73.90
2018-09-28T15:06:29.323Z,73.20
2018-09-28T15:09:32.451Z,73.70
2018-09-28T15:12:35.591Z,73.10
2018-09-28T15:15:38.773Z,70.60
2018-09-28T15:18:41.963Z,71.00
2018-09-28T15:21:45.172Z,71.00
2018-09-28T15:24:48.290Z,71.80
2018-09-28T15:27:51.415Z,71.90
2018-09-28T15:30:54.524Z,71.60
2018-09-28T15:33:57.661Z,72.40
2018-09-28T15:37:00.802Z,72.60
2018-09-28T15:40:04.118Z,73.40
2018-09-28T15:43:07.550Z,72.90
2018-09-28T15:46:10.671Z,70.50
2018-09-28T15:49:13.801Z,71.40
2018-09-28T15:52:16.938Z,72.10
2018-09-28T15:55:20.091Z,72.20
2018-09-28T15:58:23.238Z,72.20
2018-09-28T16:01:26.365Z,72.00
2018-09-28T16:04:29.477Z,70.50
2018-09-28T16:07:32.607Z,70.80
2018-09-28T16:10:35.733Z,70.00
2018-09-28T16:13:38.868Z,70.80
2018-09-28T16:16:41.992Z,71.20
2018-09-28T16:19:45.138Z,72.00
2018-09-28T16:22:48.247Z,72.60
2018-09-28T16:25:54.761Z,73.20
2018-09-28T16:28:57.874Z,73.30
2018-09-28T16:32:02.126Z,73.30
2018-09-28T16:35:05.550Z,73.50
2018-09-28T16:38:08.677Z,74.30
2018-09-28T16:41:11.842Z,73.90
2018-09-28T16:44:14.986Z,74.10
2018-09-28T16:47:18.123Z,75.10
2018-09-28T16:50:21.246Z,75.70
2018-09-28T16:53:24.336Z,76.40
2018-09-28T16:56:27.523Z,77.10
2018-09-28T16:59:30.631Z,78.10
2018-09-28T17:02:33.781Z,78.50
2018-09-28T17:05:36.934Z,79.20
2018-09-28T17:08:40.072Z,79.90
2018-09-28T17:11:43.198Z,80.10
2018-09-28T17:14:46.323Z,80.90
2018-09-28T17:17:49.452Z,81.90
2018-09-28T17:20:52.590Z,82.50
2018-09-28T17:23:55.824Z,83.30
2018-09-28T17:26:58.936Z,84.30
2018-09-28T17:30:02.046Z,85.50
2018-09-28T17:33:05.174Z,86.50
2018-09-28T17:36:08.321Z,87.70
2018-09-28T17:39:12.505Z,88.70
2018-09-28T17:42:15.654Z,89.40
2018-09-28T17:45:18.746Z,89.40
2018-09-28T17:48:21.874Z,89.40
2018-09-28T17:51:24.996Z,89.20
2018-09-28T17:54:28.134Z,90.10
2018-09-28T17:57:31.260Z,90.40
2018-09-28T18:00:34.398Z,90.50
2018-09-28T18:03:37.514Z,90.60
2018-09-28T18:06:40.613Z,90.90
2018-09-28T18:09:43.737Z,91.00
2018-09-28T18:12:46.864Z,91.30
2018-09-28T18:15:50.373Z,91.50
2018-09-28T18:18:53.489Z,91.80
2018-09-28T18:21:56.798Z,91.90
2018-09-28T18:24:59.897Z,91.80
2018-09-28T18:28:03.056Z,91.80
2018-09-28T18:31:07.788Z,91.90
2018-09-28T18:34:12.276Z,91.90
2018-09-28T18:37:16.894Z,92.00
2018-09-28T18:40:20.429Z,92.30
2018-09-28T18:43:24.087Z,92.50
2018-09-28T18:46:27.381Z,92.60
2018-09-28T18:49:31.371Z,92.80
2018-09-28T18:52:36.020Z,92.90
2018-09-28T18:55:39.193Z,93.60
2018-09-28T18:58:42.356Z,93.80
2018-09-28T19:01:45.487Z,93.90
2018-09-28T19:04:48.633Z,93.80
2018-09-28T19:07:51.846Z,93.90
2018-09-28T19:10:55.034Z,93.90
2018-09-28T19:13:58.574Z,93.90
2018-09-28T19:17:03.143Z,94.10
2018-09-28T19:20:07.149Z,94.30
2018-09-28T19:23:11.718Z,94.50
2018-09-28T19:26:15.300Z,94.70
2018-09-28T19:29:18.426Z,94.70
2018-09-28T19:32:29.286Z,95.00
2018-09-28T19:35:32.454Z,95.10
2018-09-28T19:38:35.599Z,95.30
2018-09-28T19:41:39.603Z,95.50
2018-09-28T19:44:42.729Z,95.50
2018-09-28T19:47:45.919Z,95.70
2018-09-28T19:50:49.166Z,95.80
2018-09-28T19:53:58.967Z,95.70
2018-09-28T19:57:02.895Z,95.90
2018-09-28T20:00:06.734Z,95.90
2018-09-28T20:03:12.629Z,95.90
2018-09-28T20:06:19.845Z,95.70
2018-09-28T20:09:23.127Z,95.90
2018-09-28T20:12:26.297Z,96.00
2018-09-28T20:15:29.412Z,95.90
2018-09-28T20:18:32.557Z,95.80
2018-09-28T20:21:35.673Z,95.80
2018-09-28T20:24:38.838Z,95.90
2018-09-28T20:27:41.962Z,95.70
2018-09-28T20:30:45.080Z,95.70
2018-09-28T20:33:48.167Z,95.90
2018-09-28T20:36:51.306Z,96.00
2018-09-28T20:39:54.409Z,96.00
2018-09-28T20:42:57.534Z,96.10
2018-09-28T20:46:00.631Z,96.10
2018-09-28T20:49:03.830Z,96.20
2018-09-28T20:52:07.098Z,96.20
2018-09-28T20:55:10.218Z,96.40
2018-09-28T20:58:13.375Z,96.80
2018-09-28T21:01:16.506Z,96.50
2018-09-28T21:04:19.646Z,96.60
2018-09-28T21:07:22.777Z,96.50
2018-09-28T21:10:25.889Z,96.50
2018-09-28T21:13:29.075Z,96.50
2018-09-28T21:16:32.127Z,96.50
2018-09-28T21:19:35.246Z,96.70
2018-09-28T21:25:48.012Z,97.00
2018-09-28T21:28:51.158Z,97.10
2018-09-28T21:31:54.254Z,97.30
2018-09-28T21:34:57.398Z,97.30
2018-09-28T21:38:00.722Z,97.40
2018-09-28T21:41:03.821Z,97.60
2018-09-28T21:44:07.503Z,97.90
2018-09-28T21:47:10.645Z,97.90
2018-09-28T21:50:13.791Z,98.10
2018-09-28T21:53:16.961Z,98.30
2018-09-28T21:56:20.301Z,98.40
2018-09-28T21:59:23.445Z,98.60
2018-09-28T22:02:35.050Z,98.70
2018-09-28T22:05:38.178Z,98.70
2018-09-28T22:08:41.270Z,98.70
2018-09-28T22:11:44.430Z,98.70
2018-09-28T22:14:47.596Z,98.70
2018-09-28T22:17:50.714Z,98.80
2018-09-28T22:20:53.854Z,98.90
2018-09-28T22:23:56.954Z,98.70
2018-09-28T22:27:00.096Z,98.80
2018-09-28T22:30:03.194Z,98.80
2018-09-28T22:33:06.333Z,98.80
2018-09-28T22:36:09.429Z,99.00
2018-09-28T22:39:12.758Z,99.10
2018-09-28T22:42:15.885Z,99.20
2018-09-28T22:45:19.039Z,99.20
2018-09-28T22:48:22.190Z,99.30
2018-09-28T22:51:25.294Z,99.30
2018-09-28T22:54:28.406Z,99.40
2018-09-28T22:57:31.748Z,99.50
2018-09-28T23:00:34.853Z,99.60
2018-09-28T23:03:37.978Z,99.80
2018-09-28T23:06:41.094Z,99.90
2018-09-28T23:09:44.210Z,99.90
2018-09-28T23:12:47.426Z,99.90
2018-09-28T23:15:50.554Z,99.90
2018-09-28T23:18:53.650Z,99.90
2018-09-28T23:21:56.825Z,99.90
2018-09-28T23:24:59.909Z,99.90
2018-09-28T23:28:03.045Z,99.90
2018-09-28T23:31:06.146Z,99.90
2018-09-28T23:34:09.283Z,99.90
2018-09-28T23:37:12.395Z,99.90
2018-09-28T23:40:15.518Z,99.90
2018-09-28T23:43:18.797Z,99.90
2018-09-28T23:46:21.924Z,99.90
2018-09-28T23:49:25.019Z,99.90
2018-09-28T23:52:28.190Z,99.90
2018-09-28T23:55:31.286Z,99.90
2018-09-28T23:58:34.472Z,99.90
